createdAt,value
2022-11-20T00:02:09.413Z,83.83
2022-11-20T00:05:12.183Z,83.84
2022-11-20T00:08:14.994Z,83.81
2022-11-20T00:11:20.818Z,84.08
2022-11-20T00:14:23.626Z,84.16
2022-11-20T00:17:26.113Z,84.10
2022-11-20T00:20:29.115Z,83.65
2022-11-20T00:23:32.141Z,83.20
2022-11-20T00:26:35.340Z,83.93
2022-11-20T00:29:37.905Z,84.29
2022-11-20T00:32:40.669Z,84.15
2022-11-20T00:35:43.271Z,83.65
2022-11-20T00:38:46.635Z,83.83
2022-11-20T00:41:49.272Z,82.75
2022-11-20T00:44:51.947Z,83.62
2022-11-20T00:47:54.520Z,83.25
2022-11-20T00:50:57.528Z,83.21
2022-11-20T00:54:01.242Z,83.50
2022-11-20T00:57:04.379Z,82.45
2022-11-20T01:00:07.553Z,83.39
2022-11-20T01:03:10.448Z,82.77
2022-11-20T01:06:18.900Z,82.85
2022-11-20T01:09:21.987Z,83.66
2022-11-20T01:12:24.647Z,83.77
2022-11-20T01:15:27.417Z,83.48
2022-11-20T01:18:30.222Z,83.58
2022-11-20T01:21:38.812Z,83.49
2022-11-20T01:24:41.295Z,83.58
2022-11-20T01:27:44.045Z,83.49
2022-11-20T01:30:46.771Z,83.86
2022-11-20T01:33:52.400Z,83.83
2022-11-20T01:36:55.224Z,83.70
2022-11-20T01:39:58.065Z,83.44
2022-11-20T01:43:23.283Z,83.62
2022-11-20T01:46:26.297Z,83.19
2022-11-20T01:49:42.064Z,84.12
2022-11-20T01:52:54.975Z,83.91
2022-11-20T01:56:00.637Z,83.92
2022-11-20T01:59:06.515Z,83.84
2022-11-20T02:02:09.140Z,83.68
2022-11-20T02:05:24.643Z,83.08
2022-11-20T02:08:27.823Z,83.76
2022-11-20T02:11:32.254Z,83.25
2022-11-20T02:14:34.981Z,83.40
2022-11-20T02:17:38.311Z,83.47
2022-11-20T02:20:45.140Z,82.70
2022-11-20T02:24:06.193Z,82.33
2022-11-20T02:27:17.076Z,82.90
2022-11-20T02:30:20.155Z,82.77
2022-11-20T02:33:22.837Z,81.96
2022-11-20T02:36:28.900Z,82.31
2022-11-20T02:39:31.644Z,82.21
2022-11-20T02:42:34.389Z,82.16
2022-11-20T02:45:37.427Z,82.49
2022-11-20T02:48:40.510Z,82.84
2022-11-20T02:51:43.051Z,82.85
2022-11-20T02:54:45.962Z,83.52
2022-11-20T02:57:48.418Z,82.54
2022-11-20T03:00:51.493Z,83.24
2022-11-20T03:03:55.786Z,83.10
2022-11-20T03:06:58.458Z,82.80
2022-11-20T03:10:01.287Z,83.28
2022-11-20T03:13:03.975Z,82.91
2022-11-20T03:16:18.148Z,82.51
2022-11-20T03:19:21.483Z,83.11
2022-11-20T03:22:24.140Z,82.88
2022-11-20T03:25:27.124Z,83.67
2022-11-20T03:28:29.779Z,83.57
2022-11-20T03:31:35.912Z,83.88
2022-11-20T03:34:38.693Z,84.34
2022-11-20T03:37:41.578Z,83.76
2022-11-20T03:40:44.291Z,84.18
2022-11-20T03:43:54.309Z,84.12
2022-11-20T03:46:56.984Z,83.57
2022-11-20T03:49:59.951Z,84.22
2022-11-20T03:53:02.396Z,83.79
2022-11-20T03:56:05.822Z,83.78
2022-11-20T03:59:11.690Z,83.72
2022-11-20T04:02:14.854Z,83.69
2022-11-20T04:05:17.492Z,82.93
2022-11-20T04:08:20.220Z,83.09
2022-11-20T04:11:25.567Z,83.20
2022-11-20T04:14:28.521Z,83.36
2022-11-20T04:17:31.155Z,83.16
2022-11-20T04:20:34.524Z,82.96
2022-11-20T04:23:37.458Z,83.63
2022-11-20T04:26:41.409Z,83.96
2022-11-20T04:29:43.879Z,84.12
2022-11-20T04:32:47.082Z,84.17
2022-11-20T04:35:49.670Z,83.64
2022-11-20T04:38:56.752Z,82.86
2022-11-20T04:42:22.901Z,83.62
2022-11-20T04:45:25.733Z,83.73
2022-11-20T04:48:29.608Z,83.14
2022-11-20T04:51:32.906Z,82.79
2022-11-20T04:54:35.316Z,83.54
2022-11-20T04:57:38.231Z,82.59
2022-11-20T05:00:41.040Z,83.05
2022-11-20T05:03:45.613Z,83.07
2022-11-20T05:06:48.298Z,83.14
2022-11-20T05:09:51.197Z,83.12
2022-11-20T05:12:54.343Z,83.02
2022-11-20T05:15:57.193Z,83.45
2022-11-20T05:19:00.270Z,82.59
2022-11-20T05:22:02.952Z,82.87
2022-11-20T05:25:05.777Z,82.54
2022-11-20T05:28:08.843Z,82.99
2022-11-20T05:31:14.035Z,83.07
2022-11-20T05:34:17.081Z,83.31
2022-11-20T05:37:19.983Z,82.98
2022-11-20T05:40:22.615Z,82.62
2022-11-20T05:43:25.249Z,82.54
2022-11-20T05:46:29.436Z,82.41
2022-11-20T05:49:33.359Z,82.53
2022-11-20T05:52:36.219Z,81.94
2022-11-20T05:55:38.833Z,82.35
2022-11-20T05:58:41.924Z,82.69
2022-11-20T06:01:44.444Z,81.76
2022-11-20T06:04:47.448Z,82.09
2022-11-20T06:07:50.094Z,81.78
2022-11-20T06:10:52.970Z,82.07
2022-11-20T06:13:55.787Z,81.53
2022-11-20T06:16:58.719Z,81.56
2022-11-20T06:20:01.622Z,81.73
2022-11-20T06:23:04.529Z,81.42
2022-11-20T06:26:13.212Z,81.64
2022-11-20T06:29:16.292Z,80.73
2022-11-20T06:32:18.740Z,81.47
2022-11-20T06:35:21.655Z,81.12
2022-11-20T06:38:25.007Z,80.56
2022-11-20T06:41:29.095Z,80.41
2022-11-20T06:44:31.748Z,80.62
2022-11-20T06:47:34.796Z,79.98
2022-11-20T06:50:38.095Z,80.18
2022-11-20T06:53:40.908Z,81.00
2022-11-20T06:56:43.336Z,81.07
2022-11-20T06:59:46.378Z,81.14
2022-11-20T07:02:49.010Z,81.90
2022-11-20T07:05:51.866Z,82.03
2022-11-20T07:08:54.548Z,81.66
2022-11-20T07:11:57.302Z,81.27
2022-11-20T07:14:59.913Z,81.11
2022-11-20T07:18:03.273Z,81.36
2022-11-20T07:21:09.308Z,81.18
2022-11-20T07:24:11.964Z,80.87
2022-11-20T07:27:15.269Z,79.49
2022-11-20T07:30:18.331Z,80.07
2022-11-20T07:33:20.900Z,81.25
2022-11-20T07:36:23.783Z,80.68
2022-11-20T07:39:26.930Z,80.43
2022-11-20T07:42:29.916Z,79.81
2022-11-20T07:45:32.616Z,80.32
2022-11-20T07:48:35.288Z,79.72
2022-11-20T07:51:37.900Z,80.27
2022-11-20T07:54:40.979Z,79.76
2022-11-20T07:57:43.471Z,79.50
2022-11-20T08:00:46.687Z,79.21
2022-11-20T08:03:49.284Z,79.93
2022-11-20T08:06:53.733Z,80.80
2022-11-20T08:09:56.527Z,80.85
2022-11-20T08:13:17.747Z,79.59
2022-11-20T08:16:20.376Z,79.48
2022-11-20T08:19:23.805Z,78.41
2022-11-20T08:22:26.880Z,79.30
2022-11-20T08:25:31.220Z,78.98
2022-11-20T08:28:33.719Z,77.77
2022-11-20T08:31:37.120Z,77.39
2022-11-20T08:34:39.605Z,78.08
2022-11-20T08:37:42.797Z,78.12
2022-11-20T08:41:05.327Z,77.50
2022-11-20T08:44:08.888Z,75.89
2022-11-20T08:47:11.599Z,76.84
2022-11-20T08:50:16.374Z,77.25
2022-11-20T08:53:18.870Z,75.67
2022-11-20T08:56:21.684Z,76.63
2022-11-20T08:59:43.851Z,75.46
2022-11-20T09:02:47.540Z,75.15
2022-11-20T09:05:50.002Z,74.69
2022-11-20T09:08:58.700Z,74.81
2022-11-20T09:12:02.433Z,75.34
2022-11-20T09:15:05.570Z,75.11
2022-11-20T09:18:08.252Z,74.12
2022-11-20T09:21:12.994Z,75.71
2022-11-20T09:24:15.860Z,75.27
2022-11-20T09:27:24.691Z,73.94
2022-11-20T09:30:28.050Z,73.74
2022-11-20T09:33:31.514Z,74.11
2022-11-20T09:36:34.002Z,74.11
2022-11-20T09:39:40.070Z,74.27
2022-11-20T09:42:50.508Z,75.38
2022-11-20T09:45:56.827Z,73.63
2022-11-20T09:49:18.288Z,74.72
2022-11-20T09:52:42.803Z,73.71
2022-11-20T09:55:47.473Z,73.73
2022-11-20T09:58:55.870Z,73.25
2022-11-20T10:02:00.458Z,73.28
2022-11-20T10:05:20.650Z,72.70
2022-11-20T10:08:23.319Z,72.23
2022-11-20T10:12:08.053Z,71.34
2022-11-20T10:15:26.291Z,72.03
2022-11-20T10:18:44.007Z,71.65
2022-11-20T10:22:19.302Z,71.69
2022-11-20T10:25:43.867Z,71.80
2022-11-20T10:29:08.982Z,71.32
2022-11-20T10:32:19.621Z,70.16
2022-11-20T10:35:23.060Z,70.72
2022-11-20T10:38:50.779Z,69.92
2022-11-20T10:41:54.805Z,70.75
2022-11-20T10:45:11.302Z,70.06
2022-11-20T10:48:19.404Z,70.88
2022-11-20T10:51:31.122Z,72.38
2022-11-20T10:55:34.597Z,72.74
2022-11-20T10:58:50.140Z,72.63
2022-11-20T11:01:53.097Z,71.75
2022-11-20T11:04:56.178Z,70.89
2022-11-20T11:07:59.967Z,71.35
2022-11-20T11:11:18.315Z,72.14
2022-11-20T11:14:21.449Z,73.75
2022-11-20T11:17:28.318Z,72.59
2022-11-20T11:20:52.075Z,70.39
2022-11-20T11:24:19.679Z,70.07
2022-11-20T11:27:25.743Z,70.65
2022-11-20T11:30:31.650Z,70.05
2022-11-20T11:33:37.048Z,71.65
2022-11-20T11:36:40.436Z,70.69
2022-11-20T11:39:43.931Z,71.47
2022-11-20T11:42:59.096Z,71.69
2022-11-20T11:46:01.807Z,72.27
2022-11-20T11:49:10.523Z,73.07
2022-11-20T11:52:25.350Z,72.88
2022-11-20T11:55:45.049Z,72.94
2022-11-20T11:58:53.216Z,74.79
2022-11-20T12:02:01.355Z,74.07
2022-11-20T12:05:16.112Z,74.41
2022-11-20T12:08:25.317Z,73.54
2022-11-20T12:11:58.085Z,72.52
2022-11-20T12:15:01.426Z,71.84
2022-11-20T12:18:15.453Z,72.60
2022-11-20T12:21:24.821Z,72.03
2022-11-20T12:24:36.880Z,70.92
2022-11-20T12:28:09.581Z,70.53
2022-11-20T12:31:21.099Z,70.29
2022-11-20T12:34:46.426Z,69.64
2022-11-20T12:38:14.379Z,70.28
2022-11-20T12:41:53.848Z,70.15
2022-11-20T12:45:11.226Z,70.39
2022-11-20T12:48:25.041Z,70.29
2022-11-20T12:51:34.576Z,70.70
2022-11-20T12:54:55.658Z,71.89
2022-11-20T12:58:22.188Z,71.28
2022-11-20T13:01:49.080Z,72.76
2022-11-20T13:05:30.381Z,71.72
2022-11-20T13:08:39.549Z,72.50
2022-11-20T13:12:11.011Z,70.34
2022-11-20T13:15:46.776Z,70.47
2022-11-20T13:18:49.720Z,71.68
2022-11-20T13:21:52.993Z,72.17
2022-11-20T13:24:55.987Z,71.59
2022-11-20T13:28:12.858Z,70.85
2022-11-20T13:31:31.797Z,71.17
2022-11-20T13:34:34.979Z,71.47
2022-11-20T13:37:38.979Z,72.54
2022-11-20T13:40:58.567Z,71.65
2022-11-20T13:44:09.979Z,73.37
2022-11-20T13:47:25.023Z,71.26
2022-11-20T13:50:41.102Z,72.74
2022-11-20T13:54:07.750Z,72.35
2022-11-20T13:57:38.204Z,71.99
2022-11-20T14:01:02.042Z,73.59
2022-11-20T14:04:16.737Z,73.23
2022-11-20T14:07:27.481Z,73.82
2022-11-20T14:10:32.359Z,73.69
2022-11-20T14:13:35.722Z,73.95
2022-11-20T14:16:38.878Z,74.85
2022-11-20T14:19:44.393Z,74.12
2022-11-20T14:22:51.660Z,74.69
2022-11-20T14:25:55.289Z,76.20
2022-11-20T14:28:58.122Z,76.35
2022-11-20T14:32:02.180Z,77.03
2022-11-20T14:35:10.922Z,76.57
2022-11-20T14:38:16.351Z,76.43
2022-11-20T14:41:24.575Z,77.16
2022-11-20T14:44:38.415Z,76.67
2022-11-20T14:47:42.775Z,76.28
2022-11-20T14:50:45.747Z,77.19
2022-11-20T14:53:49.455Z,78.02
2022-11-20T14:56:57.348Z,78.76
2022-11-20T15:00:13.441Z,78.03
2022-11-20T15:03:17.806Z,78.60
2022-11-20T15:06:27.092Z,78.95
2022-11-20T15:09:30.416Z,79.99
2022-11-20T15:12:37.199Z,80.78
2022-11-20T15:15:42.879Z,79.63
2022-11-20T15:18:45.758Z,79.12
2022-11-20T15:21:49.071Z,78.96
2022-11-20T15:24:51.845Z,79.18
2022-11-20T15:27:57.463Z,80.22
2022-11-20T15:31:00.998Z,80.60
2022-11-20T15:34:08.606Z,81.59
2022-11-20T15:37:11.804Z,81.92
2022-11-20T15:40:14.976Z,82.14
2022-11-20T15:43:17.813Z,81.38
2022-11-20T15:46:27.569Z,81.84
2022-11-20T15:49:30.490Z,83.14
2022-11-20T15:52:42.098Z,81.91
2022-11-20T15:55:44.924Z,83.72
2022-11-20T15:58:48.235Z,84.85
2022-11-20T16:01:50.746Z,84.56
2022-11-20T16:04:53.772Z,85.06
2022-11-20T16:07:57.026Z,84.98
2022-11-20T16:11:00.112Z,84.79
2022-11-20T16:14:22.819Z,84.62
2022-11-20T16:17:43.699Z,85.40
2022-11-20T16:20:49.147Z,86.21
2022-11-20T16:23:51.707Z,86.67
2022-11-20T16:26:55.217Z,86.84
2022-11-20T16:29:58.179Z,86.09
2022-11-20T16:33:01.759Z,85.98
2022-11-20T16:36:16.229Z,84.77
2022-11-20T16:39:23.646Z,85.94
2022-11-20T16:42:26.986Z,87.98
2022-11-20T16:45:33.725Z,87.16
2022-11-20T16:48:37.566Z,87.26
2022-11-20T16:51:40.758Z,87.65
2022-11-20T16:54:44.156Z,87.63
2022-11-20T16:57:46.862Z,86.57
2022-11-20T17:00:51.813Z,86.59
2022-11-20T17:03:57.736Z,86.78
2022-11-20T17:07:07.526Z,87.72
2022-11-20T17:10:10.955Z,87.42
2022-11-20T17:13:14.198Z,87.68
2022-11-20T17:16:19.956Z,88.16
2022-11-20T17:19:22.592Z,87.71
2022-11-20T17:22:25.680Z,86.38
2022-11-20T17:25:28.682Z,86.10
2022-11-20T17:28:32.523Z,85.78
2022-11-20T17:31:36.639Z,85.88
2022-11-20T17:34:39.582Z,85.67
2022-11-20T17:37:42.598Z,86.12
2022-11-20T17:40:46.323Z,85.91
2022-11-20T17:43:50.168Z,86.09
2022-11-20T17:46:53.016Z,85.36
2022-11-20T17:49:55.867Z,86.02
2022-11-20T17:52:58.936Z,85.17
2022-11-20T17:56:20.681Z,85.73
2022-11-20T17:59:23.377Z,86.25
2022-11-20T18:02:26.468Z,87.33
2022-11-20T18:05:28.967Z,88.11
2022-11-20T18:08:32.351Z,89.22
2022-11-20T18:11:38.914Z,88.51
2022-11-20T18:14:43.726Z,87.11
2022-11-20T18:17:46.767Z,88.42
2022-11-20T18:20:54.338Z,88.21
2022-11-20T18:23:57.950Z,87.36
2022-11-20T18:27:01.065Z,87.15
2022-11-20T18:30:04.367Z,86.93
2022-11-20T18:33:07.659Z,86.58
2022-11-20T18:36:13.099Z,86.63
2022-11-20T18:39:16.827Z,87.23
2022-11-20T18:42:38.295Z,86.87
2022-11-20T18:45:41.090Z,87.08
2022-11-20T18:48:44.054Z,86.35
2022-11-20T18:51:48.166Z,86.53
2022-11-20T18:54:51.787Z,86.44
2022-11-20T18:57:55.394Z,86.72
2022-11-20T19:01:08.616Z,86.86
2022-11-20T19:04:14.251Z,87.57
2022-11-20T19:07:17.213Z,87.73
2022-11-20T19:10:20.465Z,89.40
2022-11-20T19:13:23.366Z,88.94
2022-11-20T19:16:26.266Z,88.12
2022-11-20T19:19:29.914Z,87.75
2022-11-20T19:22:32.893Z,87.52
2022-11-20T19:25:38.429Z,87.88
2022-11-20T19:28:41.445Z,88.17
2022-11-20T19:31:44.328Z,88.74
2022-11-20T19:34:47.162Z,89.99
2022-11-20T19:37:51.879Z,89.87
2022-11-20T19:40:54.998Z,88.47
2022-11-20T19:44:03.228Z,87.81
2022-11-20T19:47:10.234Z,87.64
2022-11-20T19:50:16.392Z,88.57
2022-11-20T19:53:19.203Z,88.81
2022-11-20T19:56:22.105Z,88.77
2022-11-20T19:59:25.506Z,87.79
2022-11-20T20:02:28.996Z,88.74
2022-11-20T20:05:34.439Z,90.08
2022-11-20T20:08:38.233Z,90.06
2022-11-20T20:11:45.795Z,89.12
2022-11-20T20:14:48.802Z,88.52
2022-11-20T20:17:53.114Z,87.89
2022-11-20T20:21:03.814Z,88.87
2022-11-20T20:24:07.503Z,88.42
2022-11-20T20:27:10.683Z,87.84
2022-11-20T20:30:13.751Z,87.63
2022-11-20T20:33:16.588Z,88.33
2022-11-20T20:36:21.202Z,89.48
2022-11-20T20:39:26.856Z,90.95
2022-11-20T20:42:32.107Z,90.31
2022-11-20T20:45:34.901Z,87.87
2022-11-20T20:48:37.878Z,87.35
2022-11-20T20:51:40.681Z,86.10
2022-11-20T20:54:43.606Z,84.58
2022-11-20T20:57:46.457Z,86.89
2022-11-20T21:00:49.612Z,87.60
2022-11-20T21:03:52.287Z,88.03
2022-11-20T21:06:55.341Z,88.90
2022-11-20T21:09:58.213Z,89.00
2022-11-20T21:13:01.539Z,90.78
2022-11-20T21:16:04.684Z,89.83
2022-11-20T21:19:08.087Z,88.56
2022-11-20T21:22:11.046Z,87.93
2022-11-20T21:25:13.732Z,85.87
2022-11-20T21:28:18.396Z,86.71
2022-11-20T21:31:25.048Z,87.98
2022-11-20T21:34:27.776Z,89.21
2022-11-20T21:37:30.564Z,89.17
2022-11-20T21:40:33.311Z,89.53
2022-11-20T21:43:38.112Z,90.62
2022-11-20T21:46:44.570Z,90.72
2022-11-20T21:49:47.729Z,91.04
2022-11-20T21:52:50.299Z,91.48
2022-11-20T21:55:56.777Z,91.08
2022-11-20T21:58:59.576Z,91.09
2022-11-20T22:02:02.369Z,91.00
2022-11-20T22:05:05.158Z,90.56
2022-11-20T22:08:07.902Z,90.07
2022-11-20T22:11:13.678Z,89.76
2022-11-20T22:14:23.264Z,88.47
2022-11-20T22:17:44.858Z,87.75
2022-11-20T22:20:47.488Z,88.56
2022-11-20T22:23:50.207Z,88.36
2022-11-20T22:26:52.870Z,87.66
2022-11-20T22:29:55.614Z,87.73
2022-11-20T22:32:58.499Z,88.23
2022-11-20T22:36:07.012Z,90.20
2022-11-20T22:39:10.351Z,90.08
2022-11-20T22:42:12.787Z,89.56
2022-11-20T22:45:15.924Z,88.60
2022-11-20T22:48:18.683Z,89.36
2022-11-20T22:51:27.514Z,89.80
2022-11-20T22:54:30.153Z,90.27
2022-11-20T22:57:33.008Z,90.78
2022-11-20T23:00:35.808Z,90.75
2022-11-20T23:03:39.955Z,90.81
2022-11-20T23:06:42.562Z,90.72
2022-11-20T23:09:45.283Z,90.15
2022-11-20T23:12:47.832Z,89.94
2022-11-20T23:15:50.537Z,90.01
2022-11-20T23:18:54.940Z,89.90
2022-11-20T23:21:57.431Z,90.39
2022-11-20T23:25:00.091Z,90.91
2022-11-20T23:28:02.899Z,89.92
2022-11-20T23:31:06.488Z,89.34
2022-11-20T23:34:09.339Z,89.29
2022-11-20T23:37:11.986Z,90.35
2022-11-20T23:40:15.765Z,89.75
2022-11-20T23:43:20.609Z,89.47
2022-11-20T23:46:23.248Z,89.80
2022-11-20T23:49:25.832Z,89.12
2022-11-20T23:52:28.559Z,88.87
2022-11-20T23:55:31.210Z,88.22
2022-11-20T23:58:36.619Z,87.14
